createdAt,value
2023-02-14T00:06:45.556Z,103402.97
2023-02-14T00:09:18.867Z,103399.66
2023-02-14T00:11:05.289Z,103405.81
2023-02-14T00:13:11.807Z,103404.91
2023-02-14T00:15:20.050Z,103404.03
2023-02-14T00:20:06.268Z,103405.09
2023-02-14T00:24:08.600Z,103397.06
2023-02-14T00:25:46.033Z,103397.06
2023-02-14T00:30:17.769Z,103398.91
2023-02-14T00:30:21.447Z,103402.41
2023-02-14T00:31:53.110Z,103395.25
2023-02-14T00:33:25.705Z,103400.47
2023-02-14T00:35:09.289Z,103397.94
2023-02-14T00:36:50.842Z,103392.75
2023-02-14T00:38:24.916Z,103392.84
2023-02-14T00:40:09.093Z,103392.91
2023-02-14T00:41:45.400Z,103396.41
2023-02-14T00:43:20.308Z,103398.22
2023-02-14T00:44:57.231Z,103396.31
2023-02-14T00:46:32.105Z,103396.25
2023-02-14T00:48:09.216Z,103395.44
2023-02-14T01:10:02.503Z,103403.13
2023-02-14T01:10:12.821Z,103405.00
2023-02-14T01:11:45.235Z,103406.69
2023-02-14T01:13:17.717Z,103410.09
2023-02-14T01:14:50.022Z,103415.38
2023-02-14T01:16:26.521Z,103408.41
2023-02-14T01:18:00.902Z,103405.78
2023-02-14T01:19:35.636Z,103409.19
2023-02-14T01:21:16.680Z,103404.81
2023-02-14T01:23:16.106Z,103402.88
2023-02-14T01:27:44.008Z,103409.75
2023-02-14T01:29:22.028Z,103417.56
2023-02-14T01:30:58.452Z,103407.09
2023-02-14T01:32:34.904Z,103412.19
2023-02-14T01:34:09.581Z,103414.78
2023-02-14T01:35:41.820Z,103407.81
2023-02-14T01:37:14.657Z,103411.22
2023-02-14T01:38:46.990Z,103414.69
2023-02-14T01:40:21.564Z,103412.03
2023-02-14T01:41:56.161Z,103407.56
2023-02-14T01:43:30.612Z,103404.97
2023-02-14T01:45:05.068Z,103404.06
2023-02-14T01:46:40.682Z,103402.16
2023-02-14T01:48:13.139Z,103406.47
2023-02-14T01:49:49.642Z,103402.88
2023-02-14T01:51:23.535Z,103405.41
2023-02-14T01:53:17.770Z,103397.53
2023-02-14T01:55:12.159Z,103399.16
2023-02-14T01:56:49.548Z,103396.47
2023-02-14T01:58:28.762Z,103398.09
2023-02-14T02:00:22.063Z,103399.78
2023-02-14T02:01:54.945Z,103393.63
2023-02-14T02:03:31.737Z,103387.53
2023-02-14T02:05:14.805Z,103388.31
2023-02-14T02:06:59.066Z,103389.13
2023-02-14T02:08:51.873Z,103390.91
2023-02-14T02:10:34.372Z,103387.41
2023-02-14T02:12:30.530Z,103386.44
2023-02-14T02:14:04.750Z,103388.94
2023-02-14T02:16:04.583Z,103383.59
2023-02-14T02:18:10.799Z,103382.69
2023-02-14T02:20:06.654Z,103380.91
2023-02-14T02:22:26.414Z,103383.34
2023-02-14T02:24:26.678Z,103378.22
2023-02-14T02:26:26.657Z,103379.84
2023-02-14T02:28:04.761Z,103375.47
2023-02-14T02:29:50.256Z,103373.78
2023-02-14T02:32:46.334Z,103378.06
2023-02-14T02:37:13.480Z,103371.09
2023-02-14T02:40:04.957Z,103373.78
2023-02-14T02:42:01.461Z,103372.72
2023-02-14T02:43:39.453Z,103368.31
2023-02-14T02:45:23.657Z,103369.84
2023-02-14T02:47:32.047Z,103361.09
2023-02-14T02:49:43.233Z,103366.19
2023-02-14T02:51:58.814Z,103372.19
2023-02-14T02:53:49.395Z,103366.13
2023-02-14T02:56:02.008Z,103368.63
2023-02-14T02:57:41.541Z,103373.81
2023-02-14T02:59:33.662Z,103365.22
2023-02-14T03:01:18.779Z,103363.69
2023-02-14T03:03:11.970Z,103362.63
2023-02-14T03:04:59.882Z,103366.91
2023-02-14T03:06:33.811Z,103370.22
2023-02-14T03:08:09.877Z,103371.03
2023-02-14T03:09:42.449Z,103375.34
2023-02-14T03:11:14.724Z,103370.94
2023-02-14T03:13:10.401Z,103370.88
2023-02-14T03:14:53.776Z,103374.28
2023-02-14T03:16:49.598Z,103366.22
2023-02-14T03:19:02.467Z,103360.16
2023-02-14T03:21:07.669Z,103366.06
2023-02-14T03:23:07.386Z,103366.88
2023-02-14T03:24:48.684Z,103369.19
2023-02-14T03:26:31.713Z,103371.59
2023-02-14T03:28:20.240Z,103368.22
2023-02-14T03:29:56.335Z,103376.69
2023-02-14T03:31:34.259Z,103378.38
2023-02-14T03:33:19.474Z,103377.22
2023-02-14T03:35:03.969Z,103376.16
2023-02-14T03:36:41.634Z,103375.44
2023-02-14T03:38:37.508Z,103384.00
2023-02-14T03:40:17.003Z,103374.34
2023-02-14T03:41:59.461Z,103374.28
2023-02-14T03:43:37.903Z,103384.81
2023-02-14T03:45:16.903Z,103380.44
2023-02-14T03:46:53.040Z,103372.47
2023-02-14T03:48:27.555Z,103380.16
2023-02-14T03:50:15.180Z,103375.97
2023-02-14T03:51:49.578Z,103372.47
2023-02-14T03:53:27.625Z,103377.75
2023-02-14T03:55:01.124Z,103381.88
2023-02-14T03:56:35.635Z,103371.41
2023-02-14T03:58:10.373Z,103376.69
2023-02-14T03:59:42.975Z,103382.59
2023-02-14T04:01:25.876Z,103383.47
2023-02-14T04:03:05.435Z,103380.00
2023-02-14T04:04:44.689Z,103390.28
2023-02-14T04:06:20.389Z,103385.97
2023-02-14T04:07:55.683Z,103380.72
2023-02-14T04:09:27.689Z,103389.28
2023-02-14T04:11:01.884Z,103382.22
2023-02-14T04:12:37.927Z,103378.84
2023-02-14T04:14:11.687Z,103381.34
2023-02-14T04:15:50.681Z,103381.41
2023-02-14T04:18:10.787Z,103378.03
2023-02-14T04:19:42.847Z,103391.69
2023-02-14T04:21:15.103Z,103384.63
2023-02-14T04:22:49.229Z,103383.56
2023-02-14T04:24:24.325Z,103386.16
2023-02-14T04:25:58.932Z,103388.47
2023-02-14T04:27:33.794Z,103385.97
2023-02-14T04:29:08.657Z,103388.38
2023-02-14T04:30:52.375Z,103390.00
2023-02-14T04:32:43.458Z,103382.84
2023-02-14T04:34:19.141Z,103394.81
2023-02-14T04:35:54.027Z,103385.16
2023-02-14T04:37:41.651Z,103384.38
2023-02-14T04:39:26.598Z,103383.47
2023-02-14T04:41:01.505Z,103381.78
2023-02-14T04:43:07.045Z,103380.88
2023-02-14T04:46:02.132Z,103375.50
2023-02-14T04:47:38.626Z,103372.72
2023-02-14T04:49:10.622Z,103370.13
2023-02-14T04:50:42.725Z,103370.84
2023-02-14T04:52:15.643Z,103368.34
2023-02-14T04:53:47.549Z,103365.66
2023-02-14T04:55:29.047Z,103369.84
2023-02-14T04:57:01.176Z,103366.19
2023-02-14T04:58:35.544Z,103357.53
2023-02-14T05:00:08.364Z,103358.22
2023-02-14T05:01:45.079Z,103355.63
2023-02-14T05:03:17.114Z,103358.13
2023-02-14T05:05:11.344Z,103358.94
2023-02-14T05:10:31.834Z,103348.41
2023-02-14T05:11:30.338Z,103343.13
2023-02-14T05:13:17.818Z,103343.75
2023-02-14T05:17:03.031Z,103343.56
2023-02-14T05:19:36.734Z,103343.38
2023-02-14T05:21:45.759Z,103336.66
2023-02-14T05:23:26.100Z,103341.94
2023-02-14T05:25:00.434Z,103340.16
2023-02-14T05:26:37.767Z,103338.28
2023-02-14T05:28:27.863Z,103339.25
2023-02-14T05:30:23.068Z,103339.25
2023-02-14T05:31:57.385Z,103341.75
2023-02-14T05:33:42.530Z,103345.41
2023-02-14T05:35:23.730Z,103341.75
2023-02-14T05:36:57.978Z,103340.69
2023-02-14T05:38:34.095Z,103345.75
2023-02-14T05:40:09.432Z,103351.03
2023-02-14T05:41:44.649Z,103345.84
2023-02-14T05:43:16.788Z,103349.34
2023-02-14T05:44:49.564Z,103344.06
2023-02-14T05:46:24.505Z,103344.16
2023-02-14T05:47:56.643Z,103348.44
2023-02-14T05:49:28.665Z,103348.44
2023-02-14T05:51:09.670Z,103343.34
2023-02-14T05:52:41.838Z,103344.25
2023-02-14T05:54:13.899Z,103343.06
2023-02-14T05:55:48.467Z,103338.78
2023-02-14T05:57:22.858Z,103340.41
2023-02-14T05:59:01.073Z,103339.50
2023-02-14T06:00:35.506Z,103338.69
2023-02-14T06:02:09.867Z,103350.84
2023-02-14T06:03:43.239Z,103345.66
2023-02-14T06:05:19.025Z,103343.88
2023-02-14T06:09:26.267Z,103333.31
2023-02-14T06:11:17.521Z,103334.72
2023-02-14T06:12:52.539Z,103337.41
2023-02-14T06:14:24.819Z,103338.09
2023-02-14T06:15:59.094Z,103338.09
2023-02-14T06:17:31.188Z,103331.16
2023-02-14T06:19:12.581Z,103331.25
2023-02-14T06:20:49.528Z,103335.63
2023-02-14T06:22:21.863Z,103339.91
2023-02-14T06:23:53.919Z,103337.22
2023-02-14T06:25:27.590Z,103339.91
2023-02-14T06:27:00.352Z,103336.22
2023-02-14T06:28:35.428Z,103339.53
2023-02-14T06:30:11.380Z,103345.50
2023-02-14T06:31:46.133Z,103347.09
2023-02-14T06:33:19.472Z,103346.19
2023-02-14T06:34:52.503Z,103347.00
2023-02-14T06:36:40.122Z,103351.19
2023-02-14T06:38:12.497Z,103343.25
2023-02-14T06:39:47.094Z,103353.19
2023-02-14T06:41:22.752Z,103365.06
2023-02-14T06:42:54.952Z,103365.84
2023-02-14T06:44:28.706Z,103357.09
2023-02-14T06:46:00.916Z,103359.88
2023-02-14T06:47:35.015Z,103359.09
2023-02-14T06:49:07.304Z,103361.56
2023-02-14T06:50:39.452Z,103362.28
2023-02-14T06:52:14.429Z,103370.84
2023-02-14T06:53:52.256Z,103370.84
2023-02-14T06:55:25.405Z,103370.03
2023-02-14T06:56:58.549Z,103376.00
2023-02-14T06:58:30.773Z,103378.78
2023-02-14T07:00:07.391Z,103372.72
2023-02-14T07:01:44.988Z,103375.31
2023-02-14T07:03:17.053Z,103368.44
2023-02-14T07:04:49.095Z,103373.59
2023-02-14T07:06:23.906Z,103375.50
2023-02-14T07:07:55.870Z,103380.56
2023-02-14T07:09:27.847Z,103376.19
2023-02-14T07:11:01.421Z,103379.06
2023-02-14T07:12:37.567Z,103379.06
2023-02-14T07:14:09.560Z,103377.28
2023-02-14T07:15:41.738Z,103373.72
2023-02-14T07:17:15.300Z,103370.41
2023-02-14T07:18:49.928Z,103378.78
2023-02-14T07:20:22.036Z,103378.88
2023-02-14T07:21:54.061Z,103377.09
2023-02-14T07:23:25.999Z,103382.97
2023-02-14T07:24:58.090Z,103378.50
2023-02-14T07:26:30.329Z,103375.22
2023-02-14T07:28:02.536Z,103383.25
2023-02-14T07:29:34.831Z,103378.97
2023-02-14T07:31:06.821Z,103380.75
2023-02-14T07:32:41.400Z,103378.19
2023-02-14T07:34:16.482Z,103385.31
2023-02-14T07:35:50.559Z,103379.25
2023-02-14T07:37:25.584Z,103376.78
2023-02-14T07:38:58.150Z,103379.44
2023-02-14T07:40:30.357Z,103376.88
2023-02-14T07:42:02.500Z,103387.13
2023-02-14T07:43:37.595Z,103378.56
2023-02-14T07:45:22.094Z,103378.56
2023-02-14T07:46:54.498Z,103376.88
2023-02-14T07:48:31.055Z,103382.84
2023-02-14T07:50:05.114Z,103388.19
2023-02-14T07:51:37.097Z,103381.16
2023-02-14T07:53:09.195Z,103382.03
2023-02-14T07:54:44.374Z,103387.22
2023-02-14T07:56:16.382Z,103383.72
2023-02-14T07:57:49.893Z,103385.44
2023-02-14T08:01:44.159Z,103386.50
2023-02-14T08:03:16.619Z,103386.50
2023-02-14T08:04:48.911Z,103373.78
2023-02-14T08:06:38.367Z,103374.66
2023-02-14T08:08:10.454Z,103373.97
2023-02-14T08:10:21.903Z,103381.91
2023-02-14T08:12:17.106Z,103382.81
2023-02-14T08:14:06.518Z,103377.09
2023-02-14T08:16:07.759Z,103379.00
2023-02-14T08:17:40.053Z,103374.53
2023-02-14T08:19:12.213Z,103377.09
2023-02-14T08:20:46.455Z,103383.97
2023-02-14T08:22:19.543Z,103378.00
2023-02-14T08:23:51.615Z,103382.47
2023-02-14T08:25:39.393Z,103385.28
2023-02-14T08:27:22.612Z,103382.78
2023-02-14T08:28:54.912Z,103387.25
2023-02-14T08:30:31.511Z,103374.50
2023-02-14T08:32:16.707Z,103381.66
2023-02-14T08:34:18.601Z,103381.84
2023-02-14T08:35:51.794Z,103380.63
2023-02-14T08:37:28.014Z,103381.78
2023-02-14T08:39:04.338Z,103375.72
2023-02-14T08:40:37.487Z,103377.88
2023-02-14T08:42:10.029Z,103372.06
2023-02-14T08:43:42.908Z,103374.22
2023-02-14T08:45:17.572Z,103366.13
2023-02-14T08:46:52.879Z,103373.38
2023-02-14T08:48:26.980Z,103372.22
2023-02-14T08:49:59.162Z,103369.09
2023-02-14T08:51:31.339Z,103365.50
2023-02-14T08:53:10.344Z,103372.03
2023-02-14T08:54:53.618Z,103374.72
2023-02-14T08:56:25.836Z,103369.34
2023-02-14T08:58:21.373Z,103369.06
2023-02-14T08:59:57.292Z,103372.22
2023-02-14T09:01:29.780Z,103359.94
2023-02-14T09:03:02.218Z,103359.88
2023-02-14T09:04:36.407Z,103359.97
2023-02-14T09:06:15.648Z,103362.91
2023-02-14T09:07:56.696Z,103354.03
2023-02-14T09:09:30.161Z,103348.03
2023-02-14T09:11:16.262Z,103347.84
2023-02-14T09:12:48.784Z,103348.19
2023-02-14T09:14:48.500Z,103345.75
2023-02-14T09:17:08.230Z,103341.44
2023-02-14T09:18:49.997Z,103346.88
2023-02-14T09:20:22.493Z,103348.91
2023-02-14T09:21:57.846Z,103345.16
2023-02-14T09:23:57.901Z,103354.31
2023-02-14T09:25:35.958Z,103346.28
2023-02-14T09:27:19.075Z,103348.38
2023-02-14T09:29:13.984Z,103342.50
2023-02-14T09:31:13.696Z,103339.38
2023-02-14T09:32:51.779Z,103336.97
2023-02-14T09:35:16.271Z,103339.06
2023-02-14T09:36:52.127Z,103336.59
2023-02-14T09:38:24.408Z,103336.97
2023-02-14T09:40:10.659Z,103336.50
2023-02-14T09:42:09.703Z,103332.81
2023-02-14T09:44:00.788Z,103327.97
2023-02-14T09:45:39.662Z,103336.31
2023-02-14T09:50:31.553Z,103326.09
2023-02-14T09:52:13.033Z,103320.47
2023-02-14T09:53:55.633Z,103324.03
2023-02-14T09:55:46.626Z,103322.50
2023-02-14T09:57:47.124Z,103315.00
2023-02-14T09:59:53.462Z,103319.16
2023-02-14T10:01:49.699Z,103309.19
2023-02-14T10:03:51.697Z,103309.19
2023-02-14T10:05:46.516Z,103306.03
2023-02-14T10:07:53.931Z,103311.81
2023-02-14T10:09:36.185Z,103302.88
2023-02-14T10:11:15.320Z,103304.13
2023-02-14T10:16:09.037Z,103299.72
2023-02-14T10:18:11.710Z,103300.59
2023-02-14T10:19:42.896Z,103298.91
2023-02-14T10:20:18.195Z,103295.91
2023-02-14T10:22:02.505Z,103301.00
2023-02-14T10:23:42.278Z,103290.66
2023-02-14T10:25:29.140Z,103279.72
2023-02-14T10:27:21.880Z,103293.44
2023-02-14T10:29:34.154Z,103290.06
2023-02-14T10:31:38.904Z,103287.13
2023-02-14T10:53:01.565Z,103274.25
2023-02-14T11:11:31.874Z,103260.94
2023-02-14T11:13:24.320Z,103252.16
2023-02-14T11:16:13.081Z,103255.44
2023-02-14T11:20:24.479Z,103247.28
2023-02-14T11:21:48.634Z,103250.28
2023-02-14T11:24:10.680Z,103244.28
2023-02-14T11:26:08.320Z,103246.41
2023-02-14T11:27:56.398Z,103245.72
2023-02-14T11:30:06.674Z,103242.75
2023-02-14T11:35:24.786Z,103236.06
2023-02-14T11:37:47.194Z,103228.19
2023-02-14T11:39:22.905Z,103221.31
2023-02-14T11:40:59.010Z,103221.25
2023-02-14T11:43:12.839Z,103219.56
2023-02-14T11:45:08.715Z,103227.69
2023-02-14T11:47:01.143Z,103218.34
2023-02-14T11:48:39.220Z,103213.72
2023-02-14T11:50:28.644Z,103207.84
2023-02-14T11:52:17.561Z,103208.78
2023-02-14T11:54:10.587Z,103204.50
2023-02-14T11:55:42.922Z,103194.03
2023-02-14T11:57:33.328Z,103191.34
2023-02-14T11:59:14.885Z,103190.63
2023-02-14T12:00:53.193Z,103189.16
2023-02-14T12:02:31.312Z,103182.19
2023-02-14T12:04:10.365Z,103181.69
2023-02-14T12:05:49.129Z,103179.25
2023-02-14T12:07:26.423Z,103176.88
2023-02-14T12:09:22.666Z,103162.97
2023-02-14T12:11:07.025Z,103166.56
2023-02-14T12:12:58.313Z,103170.78
2023-02-14T12:14:34.670Z,103169.63
2023-02-14T12:16:40.557Z,103163.50
2023-02-14T12:18:42.972Z,103164.44
2023-02-14T12:20:33.587Z,103160.00
2023-02-14T12:22:22.310Z,103152.38
2023-02-14T12:24:10.697Z,103145.38
2023-02-14T12:25:58.792Z,103141.94
2023-02-14T12:27:52.828Z,103135.84
2023-02-14T12:29:32.059Z,103128.88
2023-02-14T12:31:12.249Z,103137.81
2023-02-14T12:33:15.167Z,103141.38
2023-02-14T12:34:53.566Z,103130.66
2023-02-14T12:37:18.689Z,103134.19
2023-02-14T12:39:08.846Z,103121.84
2023-02-14T12:40:56.092Z,103124.47
2023-02-14T12:42:47.758Z,103126.19
2023-02-14T12:44:25.145Z,103118.22
2023-02-14T12:46:10.134Z,103119.94
2023-02-14T12:48:14.054Z,103115.78
2023-02-14T12:50:32.221Z,103116.63
2023-02-14T12:52:28.681Z,103110.47
2023-02-14T12:54:22.154Z,103101.66
2023-02-14T12:56:06.987Z,103109.66
2023-02-14T12:58:03.247Z,103102.78
2023-02-14T12:59:47.571Z,103105.50
2023-02-14T13:01:38.374Z,103099.41
2023-02-14T13:03:37.323Z,103095.09
2023-02-14T13:05:20.613Z,103090.75
2023-02-14T13:06:56.253Z,103082.94
2023-02-14T13:08:39.125Z,103087.31
2023-02-14T13:10:15.010Z,103086.38
2023-02-14T13:11:59.041Z,103081.22
2023-02-14T13:13:40.537Z,103079.47
2023-02-14T13:15:34.908Z,103078.81
2023-02-14T13:17:35.369Z,103075.28
2023-02-14T13:19:32.204Z,103072.63
2023-02-14T13:21:09.827Z,103077.00
2023-02-14T13:22:43.425Z,103067.28
2023-02-14T13:24:51.281Z,103066.38
2023-02-14T13:26:33.808Z,103062.00
2023-02-14T13:28:15.379Z,103054.00
2023-02-14T13:29:51.721Z,103057.38
2023-02-14T13:31:24.054Z,103051.31
2023-02-14T13:32:57.703Z,103058.38
2023-02-14T13:34:39.825Z,103054.03
2023-02-14T13:36:15.084Z,103047.88
2023-02-14T13:37:52.456Z,103044.31
2023-02-14T13:39:38.657Z,103045.19
2023-02-14T13:41:13.096Z,103050.44
2023-02-14T13:42:50.688Z,103049.53
2023-02-14T13:44:49.427Z,103044.34
2023-02-14T13:46:42.792Z,103040.88
2023-02-14T13:48:24.051Z,103035.59
2023-02-14T13:50:03.318Z,103033.75
2023-02-14T13:51:50.223Z,103031.13
2023-02-14T13:53:45.600Z,103037.38
2023-02-14T13:55:23.969Z,103033.88
2023-02-14T13:56:57.044Z,103032.06
2023-02-14T13:58:29.564Z,103032.00
2023-02-14T14:00:18.446Z,103029.34
2023-02-14T14:01:51.635Z,103027.44
2023-02-14T14:03:26.577Z,103028.28
2023-02-14T14:04:59.148Z,103033.56
2023-02-14T14:07:02.898Z,103019.53
2023-02-14T14:08:38.842Z,103026.69
2023-02-14T14:10:13.718Z,103023.16
2023-02-14T14:11:52.330Z,103028.41
2023-02-14T14:13:42.352Z,103019.75
2023-02-14T14:15:16.667Z,103020.56
2023-02-14T14:16:59.606Z,103019.75
2023-02-14T14:18:34.794Z,103019.88
2023-02-14T14:20:21.867Z,103017.28
2023-02-14T14:22:08.911Z,103014.72
2023-02-14T14:23:42.158Z,103019.94
2023-02-14T14:25:15.658Z,103015.56
2023-02-14T14:26:48.835Z,103011.19
2023-02-14T14:28:26.361Z,103007.69
2023-02-14T14:30:01.366Z,103005.00
2023-02-14T14:31:33.725Z,102999.63
2023-02-14T14:33:25.848Z,103002.25
2023-02-14T14:35:03.129Z,102999.56
2023-02-14T14:36:36.037Z,103001.31
2023-02-14T14:38:14.401Z,102999.56
2023-02-14T14:39:54.136Z,103006.66
2023-02-14T14:41:29.201Z,102999.75
2023-02-14T14:43:06.796Z,102995.44
2023-02-14T14:44:51.161Z,102994.59
2023-02-14T14:46:23.936Z,103001.59
2023-02-14T14:47:57.903Z,102991.06
2023-02-14T14:49:30.187Z,102994.59
2023-02-14T14:51:03.800Z,102996.38
2023-02-14T14:52:42.798Z,102989.25
2023-02-14T14:54:17.954Z,102989.13
2023-02-14T14:55:52.516Z,102990.00
2023-02-14T14:57:24.832Z,102986.56
2023-02-14T14:59:00.914Z,102986.47
2023-02-14T15:00:36.815Z,102984.66
2023-02-14T15:02:23.128Z,102986.41
2023-02-14T15:03:55.795Z,102981.13
2023-02-14T15:05:37.891Z,102995.16
2023-02-14T15:07:28.173Z,102992.41
2023-02-14T15:09:16.961Z,102990.66
2023-02-14T15:10:58.492Z,102982.66
2023-02-14T15:12:50.756Z,102983.59
2023-02-14T15:14:30.810Z,102980.88
2023-02-14T15:16:05.585Z,102979.13
2023-02-14T15:17:38.977Z,102977.38
2023-02-14T15:19:34.926Z,102980.81
2023-02-14T15:21:08.457Z,102975.50
2023-02-14T15:22:41.736Z,102981.63
2023-02-14T15:24:19.589Z,102975.50
2023-02-14T15:25:54.394Z,102969.28
2023-02-14T15:27:28.019Z,102970.94
2023-02-14T15:29:08.385Z,102969.03
2023-02-14T15:30:46.793Z,102980.31
2023-02-14T15:32:27.476Z,102964.44
2023-02-14T15:34:03.475Z,102968.66
2023-02-14T15:35:42.479Z,102968.50
2023-02-14T15:37:18.154Z,102959.72
2023-02-14T15:38:53.786Z,102963.16
2023-02-14T15:40:29.071Z,102960.41
2023-02-14T15:42:01.761Z,102962.06
2023-02-14T15:43:39.616Z,102967.16
2023-02-14T15:45:25.773Z,102970.47
2023-02-14T15:47:03.082Z,102970.44
2023-02-14T15:48:35.452Z,102965.09
2023-02-14T15:50:33.717Z,102976.31
2023-02-14T15:52:08.357Z,102967.41
2023-02-14T15:53:44.124Z,102969.94
2023-02-14T15:55:19.639Z,102978.69
2023-02-14T15:56:54.421Z,102974.28
2023-02-14T15:58:33.156Z,102975.94
2023-02-14T16:00:11.941Z,102975.91
2023-02-14T16:02:08.252Z,102982.94
2023-02-14T16:03:44.552Z,102981.94
2023-02-14T16:05:22.387Z,102983.63
2023-02-14T16:07:03.864Z,102980.03
2023-02-14T16:08:54.308Z,102986.06
2023-02-14T16:10:33.977Z,102990.41
2023-02-14T16:12:31.946Z,102982.44
2023-02-14T16:14:25.522Z,102978.94
2023-02-14T16:16:00.432Z,102978.88
2023-02-14T16:17:37.080Z,102984.03
2023-02-14T16:19:35.466Z,102986.59
2023-02-14T16:21:23.874Z,102981.22
2023-02-14T16:23:27.072Z,102984.50
2023-02-14T16:25:02.655Z,102987.03
2023-02-14T16:26:38.421Z,102987.91
2023-02-14T16:28:13.542Z,102985.28
2023-02-14T16:29:45.788Z,102989.56
2023-02-14T16:31:21.964Z,102988.63
2023-02-14T16:33:03.621Z,102988.56
2023-02-14T16:34:36.040Z,102996.34
2023-02-14T16:36:16.364Z,102992.78
2023-02-14T16:37:57.916Z,102994.44
2023-02-14T16:39:34.891Z,102996.13
2023-02-14T16:41:19.843Z,103001.38
2023-02-14T16:44:09.835Z,102996.91
2023-02-14T16:48:14.802Z,102990.84
2023-02-14T16:56:36.239Z,102984.25
2023-02-14T17:25:44.647Z,102997.00
2023-02-14T17:27:27.838Z,103000.28
2023-02-14T17:29:26.321Z,103004.59
2023-02-14T17:31:20.821Z,103001.00
2023-02-14T17:32:57.633Z,102994.75
2023-02-14T17:34:35.515Z,103003.44
2023-02-14T17:36:14.992Z,103007.75
2023-02-14T17:37:49.393Z,102998.94
2023-02-14T17:39:51.223Z,103003.22
2023-02-14T17:41:34.866Z,102996.09
2023-02-14T17:43:09.593Z,102994.22
2023-02-14T17:44:44.031Z,102999.38
2023-02-14T17:46:24.971Z,103003.44
2023-02-14T17:48:15.101Z,103000.69
2023-02-14T17:49:57.456Z,103000.50
2023-02-14T17:51:39.897Z,102991.69
2023-02-14T17:53:12.823Z,102998.59
2023-02-14T17:54:51.741Z,102998.38
2023-02-14T18:00:02.673Z,102997.94
2023-02-14T18:01:55.056Z,102997.69
2023-02-14T18:07:58.970Z,103007.72
2023-02-14T18:09:05.410Z,103007.41
2023-02-14T18:10:41.787Z,103002.09
2023-02-14T18:12:25.691Z,102999.44
2023-02-14T18:14:09.447Z,102997.63
2023-02-14T18:15:50.110Z,102996.63
2023-02-14T18:17:35.825Z,102996.22
2023-02-14T18:19:26.931Z,103004.00
2023-02-14T18:21:26.364Z,102999.31
2023-02-14T18:23:49.665Z,103002.59
2023-02-14T18:37:09.021Z,102999.94
2023-02-14T18:39:29.088Z,102993.66
2023-02-14T18:41:21.361Z,102995.06
2023-02-14T18:43:02.239Z,103001.00
2023-02-14T18:44:51.869Z,102998.28
2023-02-14T18:46:37.397Z,102993.06
2023-02-14T18:48:12.456Z,102993.88
2023-02-14T18:49:44.862Z,102983.47
2023-02-14T18:58:02.643Z,102973.38
2023-02-14T19:15:46.751Z,102959.94
2023-02-14T19:17:53.112Z,102957.75
2023-02-14T19:19:49.473Z,102954.19
2023-02-14T19:22:25.550Z,102951.97
2023-02-14T19:24:07.218Z,102949.94
2023-02-14T19:25:51.552Z,102946.28
2023-02-14T19:27:37.554Z,102947.88
2023-02-14T19:29:34.407Z,102944.31
2023-02-14T20:19:51.016Z,102932.38
2023-02-14T20:21:28.521Z,102933.13
2023-02-14T20:23:00.546Z,102925.31
2023-02-14T20:24:32.790Z,102924.03
2023-02-14T20:26:04.803Z,102924.03
2023-02-14T20:27:36.992Z,102930.06
2023-02-14T20:29:12.973Z,102933.41
2023-02-14T20:30:46.309Z,102928.97
2023-02-14T20:32:18.499Z,102929.81
2023-02-14T20:33:53.129Z,102928.69
2023-02-14T20:35:25.236Z,102944.13
2023-02-14T20:36:59.370Z,102937.16
2023-02-14T20:38:32.986Z,102931.06
2023-02-14T20:40:07.350Z,102931.06
2023-02-14T20:41:39.305Z,102936.06
2023-02-14T20:43:11.491Z,102942.06
2023-02-14T20:44:43.750Z,102935.78
2023-02-14T20:46:16.073Z,102933.88
2023-02-14T20:47:49.148Z,102937.50
2023-02-14T20:49:21.507Z,102934.91
2023-02-14T20:50:53.941Z,102930.47
2023-02-14T20:52:27.188Z,102929.50
2023-02-14T20:53:59.221Z,102929.44
2023-02-14T20:55:31.666Z,102927.59
2023-02-14T20:57:04.959Z,102931.00
2023-02-14T20:58:37.982Z,102926.44
2023-02-14T21:00:15.327Z,102930.59
2023-02-14T21:01:47.811Z,102934.63
2023-02-14T21:03:19.964Z,102930.19
2023-02-14T21:04:52.159Z,102930.09
2023-02-14T21:06:26.540Z,102928.47
2023-02-14T21:07:58.737Z,102932.53
2023-02-14T21:09:30.822Z,102933.44
2023-02-14T21:11:03.866Z,102931.63
2023-02-14T21:12:35.971Z,102930.03
2023-02-14T21:14:08.673Z,102938.47
2023-02-14T21:15:40.874Z,102928.84
2023-02-14T21:17:13.078Z,102930.53
2023-02-14T21:18:48.156Z,102920.75
2023-02-14T21:20:20.370Z,102921.56
2023-02-14T21:21:52.431Z,102923.97
2023-02-14T21:23:24.604Z,102921.22
2023-02-14T21:24:56.800Z,102921.91
2023-02-14T21:26:29.463Z,102923.69
2023-02-14T21:28:01.491Z,102918.41
2023-02-14T21:29:33.585Z,102920.13
2023-02-14T21:31:07.264Z,102924.50
2023-02-14T21:32:39.291Z,102915.69
2023-02-14T21:34:11.280Z,102912.88
2023-02-14T21:35:43.415Z,102905.72
2023-02-14T21:37:15.776Z,102912.78
2023-02-14T21:38:48.080Z,102905.66
2023-02-14T21:40:20.445Z,102911.00
2023-02-14T21:41:52.560Z,102901.34
2023-02-14T21:43:27.097Z,102907.34
2023-02-14T21:45:17.876Z,102899.88
2023-02-14T21:46:49.944Z,102895.72
2023-02-14T21:48:40.644Z,102890.63
2023-02-14T21:50:31.350Z,102890.75
2023-02-14T21:52:04.345Z,102886.59
2023-02-14T21:53:36.655Z,102890.22
2023-02-14T21:55:08.954Z,102892.00
2023-02-14T21:56:44.292Z,102884.13
2023-02-14T21:58:16.321Z,102885.84
2023-02-14T21:59:48.478Z,102882.22
2023-02-14T22:01:31.733Z,102888.38
2023-02-14T22:03:03.765Z,102885.91
2023-02-14T22:04:35.993Z,102882.28
2023-02-14T22:06:08.693Z,102887.47
2023-02-14T22:07:40.795Z,102880.50
2023-02-14T22:09:14.506Z,102885.78
2023-02-14T22:10:46.527Z,102885.84
2023-02-14T22:12:18.918Z,102885.09
2023-02-14T22:13:50.974Z,102882.44
2023-02-14T22:15:23.037Z,102880.66
2023-02-14T22:16:55.807Z,102883.19
2023-02-14T22:18:27.971Z,102882.09
2023-02-14T22:20:00.101Z,102887.28
2023-02-14T22:21:33.673Z,102887.94
2023-02-14T22:23:05.669Z,102889.59
2023-02-14T22:24:37.712Z,102886.75
2023-02-14T22:26:11.488Z,102889.94
2023-02-14T22:27:43.588Z,102882.22
2023-02-14T22:29:15.724Z,102886.16
2023-02-14T22:30:47.811Z,102892.25
2023-02-14T22:32:20.019Z,102884.97
2023-02-14T22:33:52.332Z,102878.44
2023-02-14T22:35:24.394Z,102883.63
2023-02-14T22:36:56.575Z,102886.22
2023-02-14T22:38:29.024Z,102885.41
2023-02-14T22:40:01.188Z,102889.09
2023-02-14T22:41:38.007Z,102883.19
2023-02-14T22:43:10.135Z,102880.66
2023-02-14T22:44:42.271Z,102884.97
2023-02-14T22:46:21.022Z,102878.88
2023-02-14T22:47:53.202Z,102878.72
2023-02-14T22:49:25.502Z,102878.72
2023-02-14T22:50:57.466Z,102871.78
2023-02-14T22:52:29.518Z,102869.03
2023-02-14T22:54:06.690Z,102865.56
2023-02-14T22:55:39.956Z,102870.72
2023-02-14T22:57:12.053Z,102867.19
2023-02-14T22:58:44.521Z,102861.84
2023-02-14T23:00:16.772Z,102866.97